Time;durP1;ratioP1;P1;durP2;ratioP2;P2;SDS_P1;SDS_P2;PMS_P1;PMS_P2;Temp;Humidity;BMP_temperature;BMP_pressure;BME280_temperature;BME280_humidity;BME280_pressure;Samples;Min_cycle;Max_cycle;Signal;HPM_P1;HPM_P2
2023/05/13 00:02:19;;;;;;;3.30;2.80;;;;;;;;;;5048980;28;20204;-70
2023/05/13 00:04:46;;;;;;;3.33;2.80;;;;;;;;;;5048108;28;20195;-70
2023/05/13 00:07:13;;;;;;;2.70;2.47;;;;;;;;;;5042214;28;20203;-71
2023/05/13 00:09:40;;;;;;;3.63;2.83;;;;;;;;;;5050158;28;20191;-71
2023/05/13 00:12:07;;;;;;;2.42;2.22;;;;;;;;;;5047999;28;20203;-72
2023/05/13 00:14:34;;;;;;;3.60;2.75;;;;;;;;;;5049980;28;20211;-71
2023/05/13 00:17:03;;;;;;;3.53;2.78;;;;;;;;;;5045611;28;20289;-71
2023/05/13 00:19:32;;;;;;;3.10;2.60;;;;;;;;;;5049482;28;20223;-71
2023/05/13 00:21:59;;;;;;;3.72;2.85;;;;;;;;;;5043590;28;20259;-71
2023/05/13 00:24:26;;;;;;;3.65;2.72;;;;;;;;;;5046795;28;20200;-71
2023/05/13 00:26:53;;;;;;;3.00;2.80;;;;;;;;;;5044838;28;20202;-71
2023/05/13 00:29:20;;;;;;;3.00;2.80;;;;;;;;;;5048845;28;20203;-71
2023/05/13 00:31:47;;;;;;;3.85;3.05;;;;;;;;;;5046403;28;20286;-71
2023/05/13 00:34:15;;;;;;;2.90;2.70;;;;;;;;;;5047203;28;20199;-71
2023/05/13 00:36:44;;;;;;;3.25;2.90;;;;;;;;;;5048296;28;20246;-71
2023/05/13 00:39:12;;;;;;;3.05;2.78;;;;;;;;;;5049039;28;20208;-72
2023/05/13 00:41:39;;;;;;;3.28;2.97;;;;;;;;;;5050248;28;20204;-71
2023/05/13 00:44:06;;;;;;;3.00;2.80;;;;;;;;;;5050169;28;20199;-72
2023/05/13 00:46:33;;;;;;;4.13;2.90;;;;;;;;;;5047120;28;20210;-72
2023/05/13 00:49:01;;;;;;;6.03;2.97;;;;;;;;;;5046425;28;20200;-72
2023/05/13 00:51:28;;;;;;;3.53;3.15;;;;;;;;;;5046305;28;20206;-72
2023/05/13 00:53:58;;;;;;;3.55;2.70;;;;;;;;;;5048645;28;20203;-72
2023/05/13 00:56:25;;;;;;;3.17;2.88;;;;;;;;;;5046726;28;20227;-71
2023/05/13 00:58:53;;;;;;;6.30;3.10;;;;;;;;;;5049671;28;20292;-73
2023/05/13 01:01:24;;;;;;;3.42;2.70;;;;;;;;;;5046893;28;20199;-63
2023/05/13 01:03:54;;;;;;;5.07;3.08;;;;;;;;;;5043379;28;20196;-63
2023/05/13 01:06:31;;;;;;;3.88;2.80;;;;;;;;;;5041821;28;20203;-63
2023/05/13 01:09:03;;;;;;;5.07;3.28;;;;;;;;;;5043606;28;20281;-63
2023/05/13 01:11:32;;;;;;;3.17;2.83;;;;;;;;;;5044484;28;20294;-63
2023/05/13 01:14:02;;;;;;;3.20;2.78;;;;;;;;;;5046005;28;20214;-63
2023/05/13 01:16:31;;;;;;;3.28;2.97;;;;;;;;;;5047162;28;20235;-62
2023/05/13 01:18:59;;;;;;;2.83;2.63;;;;;;;;;;5046226;28;20223;-63
2023/05/13 01:21:28;;;;;;;2.80;2.60;;;;;;;;;;5045539;28;20235;-63
2023/05/13 01:23:55;;;;;;;6.43;3.25;;;;;;;;;;5046128;28;20207;-62
2023/05/13 01:26:24;;;;;;;5.13;2.75;;;;;;;;;;5044410;28;20208;-63
2023/05/13 01:28:51;;;;;;;3.20;3.00;;;;;;;;;;5046439;28;20204;-63
2023/05/13 01:31:19;;;;;;;2.80;2.60;;;;;;;;;;5044763;28;20200;-63
2023/05/13 01:33:47;;;;;;;3.08;2.78;;;;;;;;;;5042261;28;20210;-63
2023/05/13 01:36:14;;;;;;;3.90;2.83;;;;;;;;;;5047608;28;20207;-63
2023/05/13 01:38:44;;;;;;;3.13;2.63;;;;;;;;;;5048625;28;20226;-63
2023/05/13 01:41:11;;;;;;;3.20;2.90;;;;;;;;;;5047291;28;20207;-63
2023/05/13 01:43:38;;;;;;;3.03;2.83;;;;;;;;;;5048159;28;20227;-63
2023/05/13 01:46:11;;;;;;;4.47;3.08;;;;;;;;;;5049582;28;20200;-63
2023/05/13 01:48:39;;;;;;;7.32;3.20;;;;;;;;;;5048124;28;20207;-63
2023/05/13 01:51:06;;;;;;;3.67;3.00;;;;;;;;;;5048423;28;20207;-63
2023/05/13 01:53:33;;;;;;;4.43;3.03;;;;;;;;;;5048983;28;20203;-63
2023/05/13 01:56:01;;;;;;;3.55;2.92;;;;;;;;;;5049730;28;20277;-63
2023/05/13 01:58:28;;;;;;;3.45;2.80;;;;;;;;;;5046705;28;20196;-63
2023/05/13 02:00:56;;;;;;;3.43;3.20;;;;;;;;;;5048730;28;20212;-63
2023/05/13 02:03:23;;;;;;;4.20;3.17;;;;;;;;;;5048665;28;20199;-63
2023/05/13 02:05:50;;;;;;;4.30;2.80;;;;;;;;;;5041163;28;20203;-63
2023/05/13 02:08:17;;;;;;;3.20;2.95;;;;;;;;;;5042412;28;20211;-63
2023/05/13 02:10:44;;;;;;;3.20;3.00;;;;;;;;;;5043786;28;20210;-63
2023/05/13 02:13:12;;;;;;;2.97;2.77;;;;;;;;;;5043881;28;20212;-63
2023/05/13 02:15:39;;;;;;;3.50;3.20;;;;;;;;;;5042570;28;20235;-63
2023/05/13 02:18:07;;;;;;;2.73;2.53;;;;;;;;;;5042033;28;20206;-63
2023/05/13 02:20:34;;;;;;;3.00;2.80;;;;;;;;;;5041652;28;20223;-64
2023/05/13 02:23:01;;;;;;;3.40;3.10;;;;;;;;;;5041569;28;20201;-63
2023/05/13 02:25:28;;;;;;;3.17;2.90;;;;;;;;;;5040649;28;20218;-63
2023/05/13 02:27:55;;;;;;;4.40;3.00;;;;;;;;;;5043154;28;20199;-63
2023/05/13 02:30:25;;;;;;;3.00;2.80;;;;;;;;;;5042395;28;20211;-63
2023/05/13 02:32:53;;;;;;;3.20;2.90;;;;;;;;;;5039508;28;20200;-64
2023/05/13 02:35:21;;;;;;;3.27;2.93;;;;;;;;;;5045448;28;20202;-63
2023/05/13 02:37:48;;;;;;;4.93;3.00;;;;;;;;;;5045438;28;20294;-63
2023/05/13 02:40:15;;;;;;;3.10;2.90;;;;;;;;;;5044256;28;20231;-63
2023/05/13 02:42:43;;;;;;;3.03;2.83;;;;;;;;;;5042727;28;20210;-64
2023/05/13 02:45:10;;;;;;;3.23;2.97;;;;;;;;;;5044353;28;20233;-63
2023/05/13 02:47:39;;;;;;;4.10;3.27;;;;;;;;;;5041475;28;20207;-63
2023/05/13 02:50:08;;;;;;;3.33;3.03;;;;;;;;;;5040720;28;20265;-63
2023/05/13 02:52:35;;;;;;;3.43;3.00;;;;;;;;;;5042103;28;20196;-63
2023/05/13 02:55:03;;;;;;;3.67;2.90;;;;;;;;;;5041011;28;20227;-63
2023/05/13 02:57:30;;;;;;;3.13;2.83;;;;;;;;;;5042573;28;20204;-63
2023/05/13 02:59:57;;;;;;;3.23;2.93;;;;;;;;;;5042944;28;20231;-63
2023/05/13 03:02:24;;;;;;;3.60;3.00;;;;;;;;;;5041544;28;20208;-63
2023/05/13 03:04:53;;;;;;;2.90;2.70;;;;;;;;;;5040907;28;20306;-63
2023/05/13 03:07:20;;;;;;;3.30;2.77;;;;;;;;;;5038586;28;20200;-63
2023/05/13 03:09:47;;;;;;;4.23;2.60;;;;;;;;;;5041566;28;20199;-64
2023/05/13 03:12:15;;;;;;;4.00;2.87;;;;;;;;;;5041613;28;20206;-63
2023/05/13 03:14:43;;;;;;;4.00;3.00;;;;;;;;;;5046401;28;20207;-63
2023/05/13 03:17:10;;;;;;;2.97;2.77;;;;;;;;;;5046655;28;20385;-63
2023/05/13 03:19:38;;;;;;;3.30;2.70;;;;;;;;;;5042039;28;20215;-63
2023/05/13 03:22:07;;;;;;;3.10;2.90;;;;;;;;;;5041601;28;20281;-64
2023/05/13 03:24:34;;;;;;;3.03;2.60;;;;;;;;;;5043151;28;20226;-63
2023/05/13 03:27:01;;;;;;;3.73;2.70;;;;;;;;;;5045323;28;20215;-63
2023/05/13 03:29:28;;;;;;;4.53;2.70;;;;;;;;;;5039114;28;20202;-63
2023/05/13 03:31:55;;;;;;;5.80;3.07;;;;;;;;;;5043664;28;20210;-64
2023/05/13 03:34:22;;;;;;;2.87;2.67;;;;;;;;;;5044461;28;20211;-63
2023/05/13 03:36:49;;;;;;;3.10;2.80;;;;;;;;;;5046355;28;20208;-63
2023/05/13 03:39:18;;;;;;;4.77;3.20;;;;;;;;;;5042531;28;20223;-63
2023/05/13 03:41:45;;;;;;;5.03;3.10;;;;;;;;;;5042884;28;20204;-63
2023/05/13 03:44:12;;;;;;;3.60;2.73;;;;;;;;;;5043998;28;20206;-64
2023/05/13 03:46:39;;;;;;;3.97;2.60;;;;;;;;;;5045438;28;20210;-63
2023/05/13 03:49:06;;;;;;;4.20;2.63;;;;;;;;;;5043453;28;20204;-63
2023/05/13 03:51:33;;;;;;;3.10;2.90;;;;;;;;;;5044017;28;20207;-63
2023/05/13 03:54:01;;;;;;;2.93;2.53;;;;;;;;;;5045999;28;20210;-64
2023/05/13 03:56:29;;;;;;;2.73;2.50;;;;;;;;;;5047036;28;20207;-63
2023/05/13 03:58:57;;;;;;;3.00;2.80;;;;;;;;;;5045248;28;20203;-63
2023/05/13 04:01:24;;;;;;;3.13;2.90;;;;;;;;;;5043154;28;20211;-64
2023/05/13 04:03:51;;;;;;;3.30;2.70;;;;;;;;;;5044081;28;20206;-63
2023/05/13 04:06:18;;;;;;;4.93;2.60;;;;;;;;;;5036131;28;20211;-64
2023/05/13 04:08:46;;;;;;;3.60;2.70;;;;;;;;;;5040416;28;20200;-64
2023/05/13 04:11:13;;;;;;;4.53;3.07;;;;;;;;;;5040885;28;20199;-63
2023/05/13 04:13:42;;;;;;;3.00;2.67;;;;;;;;;;5041823;28;20203;-64
2023/05/13 04:16:09;;;;;;;2.80;2.43;;;;;;;;;;5037782;28;20333;-63
2023/05/13 04:18:36;;;;;;;3.00;2.73;;;;;;;;;;5042297;28;20210;-64
2023/05/13 04:21:06;;;;;;;2.83;2.63;;;;;;;;;;5039026;28;20230;-63
2023/05/13 04:23:33;;;;;;;3.43;3.00;;;;;;;;;;5040958;28;20234;-64
2023/05/13 04:26:00;;;;;;;3.83;3.17;;;;;;;;;;5040435;28;20342;-63
2023/05/13 04:28:27;;;;;;;2.77;2.57;;;;;;;;;;5042316;28;20215;-64
2023/05/13 04:30:56;;;;;;;3.23;2.73;;;;;;;;;;5040844;28;20208;-63
2023/05/13 04:33:23;;;;;;;3.00;2.70;;;;;;;;;;5040845;28;20200;-64
2023/05/13 04:35:50;;;;;;;2.90;2.70;;;;;;;;;;5039418;28;20200;-63
2023/05/13 04:38:17;;;;;;;3.20;2.90;;;;;;;;;;5040870;28;20238;-63
2023/05/13 04:40:46;;;;;;;3.40;2.60;;;;;;;;;;5042102;28;20219;-64
2023/05/13 04:43:13;;;;;;;2.77;2.57;;;;;;;;;;5043139;28;20206;-64
2023/05/13 04:45:40;;;;;;;2.80;2.60;;;;;;;;;;5045510;28;20234;-64
2023/05/13 04:48:09;;;;;;;3.00;2.80;;;;;;;;;;5043228;28;20226;-63
2023/05/13 04:50:36;;;;;;;2.83;2.63;;;;;;;;;;5044137;28;20200;-64
2023/05/13 04:53:03;;;;;;;4.53;2.97;;;;;;;;;;5041224;28;20200;-64
2023/05/13 04:55:30;;;;;;;3.40;3.10;;;;;;;;;;5048671;28;20200;-64
2023/05/13 04:57:57;;;;;;;4.83;2.70;;;;;;;;;;5048954;28;20211;-64
2023/05/13 05:00:24;;;;;;;4.07;3.30;;;;;;;;;;5048922;28;20220;-64
2023/05/13 05:02:52;;;;;;;3.50;3.20;;;;;;;;;;5051899;28;20206;-64
2023/05/13 05:05:20;;;;;;;2.97;2.77;;;;;;;;;;5051516;28;20208;-64
2023/05/13 05:07:47;;;;;;;3.50;2.70;;;;;;;;;;5049339;28;20211;-63
2023/05/13 05:10:15;;;;;;;4.17;2.83;;;;;;;;;;5052355;28;20207;-63
2023/05/13 05:12:42;;;;;;;3.30;3.00;;;;;;;;;;5050369;28;20207;-63
2023/05/13 05:15:14;;;;;;;4.43;2.70;;;;;;;;;;5051463;28;20246;-63
2023/05/13 05:17:41;;;;;;;4.13;2.93;;;;;;;;;;5046869;28;20210;-63
2023/05/13 05:20:09;;;;;;;2.90;2.70;;;;;;;;;;5048026;28;20222;-63
2023/05/13 05:22:37;;;;;;;3.10;2.80;;;;;;;;;;5052697;28;20203;-63
2023/05/13 05:25:05;;;;;;;2.90;2.70;;;;;;;;;;5052092;28;20212;-63
2023/05/13 05:27:32;;;;;;;2.73;2.53;;;;;;;;;;5049686;28;20208;-63
2023/05/13 05:29:59;;;;;;;2.87;2.67;;;;;;;;;;5051948;28;20211;-63
2023/05/13 05:32:26;;;;;;;3.30;2.73;;;;;;;;;;5044923;28;20210;-63
2023/05/13 05:34:54;;;;;;;3.40;2.53;;;;;;;;;;5047395;28;20224;-65
2023/05/13 05:37:21;;;;;;;2.67;2.43;;;;;;;;;;5047355;28;20199;-63
2023/05/13 05:39:49;;;;;;;2.90;2.70;;;;;;;;;;5047830;28;20207;-63
2023/05/13 05:42:16;;;;;;;3.10;2.90;;;;;;;;;;5046786;28;20199;-63
2023/05/13 05:44:44;;;;;;;3.13;2.93;;;;;;;;;;5046238;28;20215;-63
2023/05/13 05:47:11;;;;;;;3.70;3.40;;;;;;;;;;5049886;28;20215;-62
2023/05/13 05:49:38;;;;;;;3.30;2.97;;;;;;;;;;5048031;28;20210;-62
2023/05/13 05:52:05;;;;;;;5.30;3.20;;;;;;;;;;5046320;28;20204;-62
2023/05/13 05:54:32;;;;;;;3.30;3.00;;;;;;;;;;5045069;28;20203;-62
2023/05/13 05:57:01;;;;;;;3.30;3.10;;;;;;;;;;5047827;28;20204;-62
2023/05/13 05:59:28;;;;;;;3.47;3.07;;;;;;;;;;5045885;28;20203;-62
2023/05/13 06:01:55;;;;;;;3.87;3.30;;;;;;;;;;5046347;28;20219;-63
2023/05/13 06:04:23;;;;;;;3.60;3.30;;;;;;;;;;5045129;28;20212;-63
2023/05/13 06:06:50;;;;;;;3.23;3.00;;;;;;;;;;5041046;28;20199;-62
2023/05/13 06:09:17;;;;;;;3.40;3.13;;;;;;;;;;5047012;28;20199;-63
2023/05/13 06:11:44;;;;;;;3.10;2.90;;;;;;;;;;5042600;28;20206;-63
2023/05/13 06:14:13;;;;;;;4.17;2.97;;;;;;;;;;5041944;28;20207;-63
2023/05/13 06:16:40;;;;;;;3.50;3.07;;;;;;;;;;5042717;28;20258;-61
2023/05/13 06:19:07;;;;;;;3.33;2.80;;;;;;;;;;5038803;28;20196;-61
2023/05/13 06:21:36;;;;;;;3.37;3.13;;;;;;;;;;5040598;28;20310;-60
2023/05/13 06:24:03;;;;;;;3.83;3.07;;;;;;;;;;5048114;28;20203;-60
2023/05/13 06:26:30;;;;;;;3.30;2.93;;;;;;;;;;5045184;28;20203;-60
2023/05/13 06:28:57;;;;;;;3.28;3.08;;;;;;;;;;5051871;28;20216;-60
2023/05/13 06:31:25;;;;;;;2.92;2.72;;;;;;;;;;5051196;28;20208;-60
2023/05/13 06:33:52;;;;;;;4.22;3.00;;;;;;;;;;5045170;28;20200;-60
2023/05/13 06:36:20;;;;;;;3.00;2.80;;;;;;;;;;5043296;28;20199;-60
2023/05/13 06:38:47;;;;;;;3.67;2.90;;;;;;;;;;5047188;28;20228;-60
2023/05/13 06:41:14;;;;;;;3.03;2.78;;;;;;;;;;5049395;28;20212;-61
2023/05/13 06:43:44;;;;;;;3.60;2.70;;;;;;;;;;5051704;28;20199;-60
2023/05/13 06:46:11;;;;;;;2.80;2.60;;;;;;;;;;5047607;28;20196;-60
2023/05/13 06:48:39;;;;;;;2.72;2.53;;;;;;;;;;5045287;28;20195;-60
2023/05/13 06:51:07;;;;;;;2.95;2.70;;;;;;;;;;5047881;28;20196;-60
2023/05/13 06:53:34;;;;;;;3.80;2.72;;;;;;;;;;5042544;28;20230;-60
2023/05/13 06:56:01;;;;;;;2.90;2.70;;;;;;;;;;5046235;28;20211;-60
2023/05/13 06:58:28;;;;;;;2.90;2.70;;;;;;;;;;5051547;28;20226;-60
2023/05/13 07:00:55;;;;;;;3.13;2.83;;;;;;;;;;5045897;28;20212;-60
2023/05/13 07:03:22;;;;;;;3.47;2.65;;;;;;;;;;5050234;28;20203;-60
2023/05/13 07:05:51;;;;;;;2.60;2.50;;;;;;;;;;5043853;28;20219;-60
2023/05/13 07:08:18;;;;;;;2.60;2.40;;;;;;;;;;5041408;28;20211;-60
2023/05/13 07:10:45;;;;;;;2.60;2.40;;;;;;;;;;5047719;28;20196;-61
2023/05/13 07:13:12;;;;;;;3.00;2.72;;;;;;;;;;5046908;28;20214;-61
2023/05/13 07:15:39;;;;;;;3.25;2.60;;;;;;;;;;5041498;28;20235;-61
2023/05/13 07:18:08;;;;;;;2.67;2.40;;;;;;;;;;5045629;28;20207;-61
2023/05/13 07:20:35;;;;;;;3.95;2.30;;;;;;;;;;5042956;28;20223;-61
2023/05/13 07:23:04;;;;;;;2.33;2.13;;;;;;;;;;5045444;28;20256;-61
2023/05/13 07:25:31;;;;;;;2.60;2.40;;;;;;;;;;5048377;28;20208;-61
2023/05/13 07:27:58;;;;;;;3.28;2.55;;;;;;;;;;5047759;28;20210;-61
2023/05/13 07:30:30;;;;;;;2.33;2.22;;;;;;;;;;5048508;28;20210;-61
2023/05/13 07:32:58;;;;;;;2.58;2.38;;;;;;;;;;5044463;28;20207;-61
2023/05/13 07:35:26;;;;;;;2.92;2.50;;;;;;;;;;5047927;28;20199;-61
2023/05/13 07:37:54;;;;;;;2.55;2.42;;;;;;;;;;5044350;28;20231;-61
2023/05/13 07:40:22;;;;;;;3.10;2.45;;;;;;;;;;5044655;28;20207;-61
2023/05/13 07:42:49;;;;;;;3.20;2.28;;;;;;;;;;5041919;28;20195;-61
2023/05/13 07:45:16;;;;;;;2.72;2.50;;;;;;;;;;5045279;28;20215;-61
2023/05/13 07:47:43;;;;;;;2.42;2.22;;;;;;;;;;5043294;28;20210;-61
2023/05/13 07:50:11;;;;;;;2.65;2.45;;;;;;;;;;5043234;28;20207;-61
2023/05/13 07:52:38;;;;;;;3.22;2.38;;;;;;;;;;5044956;28;20204;-61
2023/05/13 07:55:05;;;;;;;2.70;2.50;;;;;;;;;;5039793;28;20199;-61
2023/05/13 07:57:34;;;;;;;3.00;2.40;;;;;;;;;;5039815;28;20208;-61
2023/05/13 08:00:01;;;;;;;3.60;2.30;;;;;;;;;;5044507;28;20203;-61
2023/05/13 08:02:33;;;;;;;2.30;2.20;;;;;;;;;;5042278;28;20220;-61
2023/05/13 08:05:00;;;;;;;2.72;2.40;;;;;;;;;;5046455;28;20258;-60
2023/05/13 08:07:28;;;;;;;4.05;2.60;;;;;;;;;;5042234;28;20214;-61
2023/05/13 08:09:55;;;;;;;3.20;2.17;;;;;;;;;;5039721;28;20298;-61
2023/05/13 08:12:22;;;;;;;3.85;2.20;;;;;;;;;;5039151;28;20204;-61
2023/05/13 08:14:50;;;;;;;3.42;2.20;;;;;;;;;;5037549;28;20208;-60
2023/05/13 08:17:18;;;;;;;2.75;2.33;;;;;;;;;;5039984;28;20215;-60
2023/05/13 08:19:45;;;;;;;2.38;2.17;;;;;;;;;;5048808;28;20203;-60
2023/05/13 08:22:12;;;;;;;5.03;2.40;;;;;;;;;;5043176;28;20269;-60
2023/05/13 08:24:41;;;;;;;3.33;2.30;;;;;;;;;;5044199;28;20222;-60
2023/05/13 08:27:09;;;;;;;3.00;2.50;;;;;;;;;;5051566;28;20207;-61
2023/05/13 08:29:36;;;;;;;2.72;2.08;;;;;;;;;;5052594;28;20199;-60
2023/05/13 08:32:06;;;;;;;2.40;2.20;;;;;;;;;;5053710;28;20213;-61
2023/05/13 08:34:33;;;;;;;2.90;2.28;;;;;;;;;;5052083;28;20203;-60
2023/05/13 08:37:00;;;;;;;2.42;2.17;;;;;;;;;;5051971;28;20211;-60
2023/05/13 08:39:28;;;;;;;2.78;2.33;;;;;;;;;;5051313;28;20204;-62
2023/05/13 08:41:56;;;;;;;2.90;2.13;;;;;;;;;;5052891;28;20230;-60
2023/05/13 08:44:27;;;;;;;2.00;1.80;;;;;;;;;;5053013;28;20250;-60
2023/05/13 08:47:10;;;;;;;2.20;2.00;;;;;;;;;;5050726;28;20242;-60
2023/05/13 08:49:39;;;;;;;2.60;2.05;;;;;;;;;;5051694;28;20210;-60
2023/05/13 08:52:06;;;;;;;2.13;1.98;;;;;;;;;;5050123;28;20219;-60
2023/05/13 08:54:35;;;;;;;3.25;2.03;;;;;;;;;;5049607;28;20203;-60
2023/05/13 08:57:02;;;;;;;3.90;1.85;;;;;;;;;;5050321;28;20427;-60
2023/05/13 08:59:29;;;;;;;3.38;2.13;;;;;;;;;;5052137;28;20211;-60
2023/05/13 09:01:56;;;;;;;3.65;2.40;;;;;;;;;;5053060;28;20223;-60
2023/05/13 09:04:24;;;;;;;3.15;2.20;;;;;;;;;;5048911;28;20211;-60
2023/05/13 09:06:53;;;;;;;3.60;2.65;;;;;;;;;;5053817;28;20222;-61
2023/05/13 09:09:20;;;;;;;2.17;1.98;;;;;;;;;;5048538;28;20203;-60
2023/05/13 09:11:48;;;;;;;4.20;1.92;;;;;;;;;;5051657;28;20199;-60
2023/05/13 09:14:19;;;;;;;2.40;2.00;;;;;;;;;;5050820;28;20222;-61
2023/05/13 09:16:46;;;;;;;2.22;2.00;;;;;;;;;;5046386;28;20259;-61
2023/05/13 09:19:13;;;;;;;3.97;1.90;;;;;;;;;;5050848;28;20208;-60
2023/05/13 09:21:41;;;;;;;2.15;2.00;;;;;;;;;;5048747;28;20232;-60
2023/05/13 09:24:11;;;;;;;3.83;2.22;;;;;;;;;;5049134;28;20200;-60
2023/05/13 09:26:39;;;;;;;2.72;2.00;;;;;;;;;;5051004;28;20257;-60
2023/05/13 09:29:16;;;;;;;2.15;2.05;;;;;;;;;;5049887;28;20199;-60
2023/05/13 09:31:43;;;;;;;3.22;2.08;;;;;;;;;;5050004;28;20212;-60
2023/05/13 09:34:11;;;;;;;2.08;1.83;;;;;;;;;;5048327;28;20207;-60
2023/05/13 09:36:38;;;;;;;2.45;2.10;;;;;;;;;;5053660;28;20200;-60
2023/05/13 09:39:06;;;;;;;2.33;2.20;;;;;;;;;;5050227;28;20214;-60
2023/05/13 09:41:35;;;;;;;4.15;2.00;;;;;;;;;;5051218;28;20235;-60
2023/05/13 09:44:03;;;;;;;3.17;2.03;;;;;;;;;;5051024;28;20207;-60
2023/05/13 09:46:33;;;;;;;3.40;2.10;;;;;;;;;;5051696;28;20203;-60
2023/05/13 09:49:00;;;;;;;3.17;1.90;;;;;;;;;;5049771;28;20203;-60
2023/05/13 09:51:27;;;;;;;2.60;1.90;;;;;;;;;;5050031;28;20203;-61
2023/05/13 09:53:55;;;;;;;2.55;2.10;;;;;;;;;;5049461;28;20211;-60
2023/05/13 09:56:23;;;;;;;3.38;2.08;;;;;;;;;;5049501;28;20210;-60
2023/05/13 09:58:58;;;;;;;2.00;1.90;;;;;;;;;;5050224;28;20206;-60
2023/05/13 10:01:27;;;;;;;6.05;2.20;;;;;;;;;;5048931;28;20278;-60
2023/05/13 10:03:55;;;;;;;2.22;1.95;;;;;;;;;;5048966;28;20238;-60
2023/05/13 10:06:24;;;;;;;4.47;2.20;;;;;;;;;;5047998;28;20207;-60
2023/05/13 10:08:52;;;;;;;3.53;2.17;;;;;;;;;;5050588;28;20203;-60
2023/05/13 10:11:20;;;;;;;2.20;2.00;;;;;;;;;;5049539;28;20203;-60
2023/05/13 10:13:50;;;;;;;1.98;1.88;;;;;;;;;;5053462;28;20207;-61
2023/05/13 10:16:19;;;;;;;2.20;2.00;;;;;;;;;;5050811;28;20239;-61
2023/05/13 10:18:47;;;;;;;4.97;2.10;;;;;;;;;;5050730;28;20207;-61
2023/05/13 10:21:14;;;;;;;2.50;2.17;;;;;;;;;;5047264;28;20231;-60
2023/05/13 10:23:42;;;;;;;2.20;2.10;;;;;;;;;;5048994;28;20211;-60
2023/05/13 10:26:09;;;;;;;2.97;2.20;;;;;;;;;;5048200;28;20210;-61
2023/05/13 10:28:36;;;;;;;2.40;2.00;;;;;;;;;;5050108;28;20208;-60
2023/05/13 10:31:03;;;;;;;2.83;1.77;;;;;;;;;;5047414;28;20207;-61
2023/05/13 10:33:32;;;;;;;2.15;1.95;;;;;;;;;;5044132;28;20207;-61
2023/05/13 10:36:07;;;;;;;3.92;2.10;;;;;;;;;;5047675;28;20216;-60
2023/05/13 10:38:39;;;;;;;4.05;2.00;;;;;;;;;;5046918;28;20232;-61
2023/05/13 10:41:10;;;;;;;2.80;2.47;;;;;;;;;;5048303;28;20225;-60
2023/05/13 10:43:37;;;;;;;2.25;1.80;;;;;;;;;;5049798;28;20231;-61
2023/05/13 10:46:05;;;;;;;2.22;2.00;;;;;;;;;;5048584;28;20203;-61
2023/05/13 10:48:41;;;;;;;4.03;2.40;;;;;;;;;;5049286;28;20214;-60
2023/05/13 10:51:09;;;;;;;2.20;2.10;;;;;;;;;;5049194;28;20214;-60
2023/05/13 10:53:37;;;;;;;2.20;2.05;;;;;;;;;;5048679;28;20204;-62
2023/05/13 10:56:06;;;;;;;2.42;1.90;;;;;;;;;;5048470;28;20223;-60
2023/05/13 10:58:36;;;;;;;3.38;1.95;;;;;;;;;;5050186;28;20214;-60
2023/05/13 11:01:14;;;;;;;2.80;2.25;;;;;;;;;;5049418;28;20337;-61
2023/05/13 11:03:43;;;;;;;2.40;2.20;;;;;;;;;;5048821;28;20256;-60
2023/05/13 11:06:17;;;;;;;2.25;2.00;;;;;;;;;;5048308;28;20207;-61
2023/05/13 11:08:45;;;;;;;2.20;1.90;;;;;;;;;;5047480;28;20206;-60
2023/05/13 11:11:33;;;;;;;2.17;1.92;;;;;;;;;;5050179;28;20203;-60
2023/05/13 11:14:06;;;;;;;3.50;2.42;;;;;;;;;;5045149;28;20199;-60
2023/05/13 11:16:33;;;;;;;2.25;1.92;;;;;;;;;;5050690;28;20242;-60
2023/05/13 11:19:02;;;;;;;2.40;2.00;;;;;;;;;;5050105;28;20210;-61
2023/05/13 11:21:30;;;;;;;2.10;1.90;;;;;;;;;;5049467;28;20211;-60
2023/05/13 11:23:58;;;;;;;3.80;2.10;;;;;;;;;;5047681;28;20294;-61
2023/05/13 11:26:25;;;;;;;2.30;2.10;;;;;;;;;;5049531;28;20207;-60
2023/05/13 11:28:59;;;;;;;2.20;2.00;;;;;;;;;;5048136;28;20294;-61
2023/05/13 11:31:28;;;;;;;2.00;1.90;;;;;;;;;;5048278;28;20206;-60
2023/05/13 11:34:08;;;;;;;2.63;2.00;;;;;;;;;;5047915;28;20196;-61
2023/05/13 11:36:35;;;;;;;2.72;2.30;;;;;;;;;;5048674;28;20203;-61
2023/05/13 11:39:05;;;;;;;2.67;1.73;;;;;;;;;;5048542;28;20207;-61
2023/05/13 11:41:33;;;;;;;4.40;2.10;;;;;;;;;;5045968;28;20208;-60
2023/05/13 11:44:02;;;;;;;2.08;1.98;;;;;;;;;;5049149;28;20200;-60
2023/05/13 11:46:29;;;;;;;2.63;2.10;;;;;;;;;;5044031;28;20207;-60
2023/05/13 11:48:56;;;;;;;1.80;1.70;;;;;;;;;;5049829;28;20199;-60
2023/05/13 11:51:25;;;;;;;2.17;2.08;;;;;;;;;;5047980;28;20203;-61
2023/05/13 11:53:52;;;;;;;2.97;1.80;;;;;;;;;;5049552;28;20204;-60
2023/05/13 11:56:19;;;;;;;2.30;1.98;;;;;;;;;;5047359;28;20260;-59
2023/05/13 11:58:46;;;;;;;3.28;1.80;;;;;;;;;;5049650;28;20214;-60
2023/05/13 12:01:17;;;;;;;2.80;1.90;;;;;;;;;;5047387;28;20223;-60
2023/05/13 12:03:44;;;;;;;1.98;1.85;;;;;;;;;;5048113;28;20223;-61
2023/05/13 12:06:11;;;;;;;3.78;1.80;;;;;;;;;;5052427;28;20230;-61
2023/05/13 12:08:45;;;;;;;2.28;2.08;;;;;;;;;;5051792;28;20208;-60
2023/05/13 12:11:12;;;;;;;2.70;2.05;;;;;;;;;;5052947;28;20207;-60
2023/05/13 12:13:40;;;;;;;2.45;1.90;;;;;;;;;;5053446;28;20255;-60
2023/05/13 12:16:07;;;;;;;2.33;1.75;;;;;;;;;;5052586;28;20231;-60
2023/05/13 12:18:35;;;;;;;3.33;1.80;;;;;;;;;;5053050;28;20199;-60
2023/05/13 12:21:13;;;;;;;2.95;1.60;;;;;;;;;;5052609;28;20206;-60
2023/05/13 12:23:41;;;;;;;3.20;1.60;;;;;;;;;;5050531;28;20230;-61
2023/05/13 12:26:09;;;;;;;4.03;1.77;;;;;;;;;;5052251;28;20223;-61
2023/05/13 12:28:36;;;;;;;2.85;1.90;;;;;;;;;;5050370;28;20214;-69
2023/05/13 12:31:05;;;;;;;1.58;1.48;;;;;;;;;;5051366;28;20199;-68
2023/05/13 12:33:33;;;;;;;1.85;1.60;;;;;;;;;;5052544;28;20222;-68
2023/05/13 12:36:18;;;;;;;2.42;1.90;;;;;;;;;;5052397;28;20207;-67
2023/05/13 12:38:58;;;;;;;2.00;1.70;;;;;;;;;;5049901;28;20207;-67
2023/05/13 12:41:27;;;;;;;2.15;1.95;;;;;;;;;;5048745;28;20302;-69
2023/05/13 12:43:58;;;;;;;3.20;1.70;;;;;;;;;;5051091;28;20232;-68
2023/05/13 12:46:25;;;;;;;4.15;1.65;;;;;;;;;;5049348;28;20206;-69
2023/05/13 12:48:56;;;;;;;2.10;1.58;;;;;;;;;;5048502;28;20253;-69
2023/05/13 12:51:23;;;;;;;2.15;1.90;;;;;;;;;;5050345;28;20207;-68
2023/05/13 12:53:52;;;;;;;3.10;1.52;;;;;;;;;;5052144;28;20207;-69
2023/05/13 12:56:20;;;;;;;1.85;1.70;;;;;;;;;;5050851;28;20258;-69
2023/05/13 12:58:48;;;;;;;1.73;1.63;;;;;;;;;;5052425;28;20218;-68
2023/05/13 13:01:15;;;;;;;2.08;1.88;;;;;;;;;;5050179;28;20210;-67
2023/05/13 13:03:42;;;;;;;2.78;1.70;;;;;;;;;;5050857;28;20238;-68
2023/05/13 13:06:10;;;;;;;2.60;1.40;;;;;;;;;;5047920;28;20199;-68
2023/05/13 13:08:37;;;;;;;1.73;1.60;;;;;;;;;;5050939;28;20195;-68
2023/05/13 13:11:05;;;;;;;1.50;1.40;;;;;;;;;;5051207;28;20218;-68
2023/05/13 13:13:32;;;;;;;2.05;1.60;;;;;;;;;;5052940;28;20204;-68
2023/05/13 13:16:00;;;;;;;2.53;1.30;;;;;;;;;;5048071;28;20270;-69
2023/05/13 13:18:28;;;;;;;2.58;1.60;;;;;;;;;;5050368;28;20203;-69
2023/05/13 13:20:55;;;;;;;3.33;1.40;;;;;;;;;;5048917;28;20222;-68
2023/05/13 13:23:22;;;;;;;1.45;1.35;;;;;;;;;;5051205;28;20219;-67
2023/05/13 13:25:49;;;;;;;1.50;1.25;;;;;;;;;;5050624;28;20210;-68
2023/05/13 13:28:17;;;;;;;2.97;1.50;;;;;;;;;;5049110;28;20272;-68
2023/05/13 13:30:45;;;;;;;1.83;1.50;;;;;;;;;;5050871;28;20218;-68
2023/05/13 13:33:15;;;;;;;1.98;1.70;;;;;;;;;;5047920;28;20195;-68
2023/05/13 13:35:43;;;;;;;2.10;1.70;;;;;;;;;;5050229;28;20219;-69
2023/05/13 13:38:10;;;;;;;1.83;1.70;;;;;;;;;;5050945;28;20199;-68
2023/05/13 13:40:37;;;;;;;2.20;2.00;;;;;;;;;;5052135;28;20207;-68
2023/05/13 13:43:04;;;;;;;2.85;1.95;;;;;;;;;;5050308;28;20239;-68
2023/05/13 13:45:31;;;;;;;2.00;1.90;;;;;;;;;;5050589;28;20204;-68
2023/05/13 13:47:59;;;;;;;2.33;1.77;;;;;;;;;;5050708;28;20196;-68
2023/05/13 13:50:27;;;;;;;2.22;2.00;;;;;;;;;;5049374;28;20238;-69
2023/05/13 13:52:55;;;;;;;2.75;2.13;;;;;;;;;;5052353;28;20211;-68
2023/05/13 13:55:22;;;;;;;2.75;1.83;;;;;;;;;;5049056;28;20210;-68
2023/05/13 13:57:50;;;;;;;2.00;1.90;;;;;;;;;;5049695;28;20210;-68
2023/05/13 14:00:17;;;;;;;1.75;1.65;;;;;;;;;;5049290;28;20207;-68
2023/05/13 14:02:45;;;;;;;2.25;1.70;;;;;;;;;;5049078;28;20227;-68
2023/05/13 14:05:12;;;;;;;2.25;2.05;;;;;;;;;;5053930;28;20207;-68
2023/05/13 14:07:41;;;;;;;2.63;1.80;;;;;;;;;;5047767;28;20211;-69
2023/05/13 14:10:08;;;;;;;3.00;1.65;;;;;;;;;;5049376;28;20208;-69
2023/05/13 14:12:36;;;;;;;2.55;1.85;;;;;;;;;;5047989;28;20203;-68
2023/05/13 14:15:03;;;;;;;2.25;1.75;;;;;;;;;;5047603;28;20207;-68
2023/05/13 14:17:30;;;;;;;3.08;1.83;;;;;;;;;;5048614;28;20199;-68
2023/05/13 14:19:57;;;;;;;3.17;1.98;;;;;;;;;;5045932;28;20214;-68
2023/05/13 14:22:24;;;;;;;1.60;1.50;;;;;;;;;;5049037;28;20207;-68
2023/05/13 14:24:53;;;;;;;2.15;1.92;;;;;;;;;;5048221;28;20214;-68
2023/05/13 14:27:23;;;;;;;4.60;1.80;;;;;;;;;;5049432;28;20230;-68
2023/05/13 14:29:50;;;;;;;2.65;2.00;;;;;;;;;;5044432;28;20199;-68
2023/05/13 14:32:17;;;;;;;2.50;2.30;;;;;;;;;;5050396;28;20207;-68
2023/05/13 14:34:44;;;;;;;2.90;2.30;;;;;;;;;;5047895;28;20208;-68
2023/05/13 14:37:12;;;;;;;2.92;2.65;;;;;;;;;;5050005;28;20207;-68
2023/05/13 14:39:39;;;;;;;3.05;2.20;;;;;;;;;;5049611;28;20209;-68
2023/05/13 14:42:10;;;;;;;1.80;1.70;;;;;;;;;;5049817;28;20207;-69
2023/05/13 14:44:37;;;;;;;1.83;1.73;;;;;;;;;;5045947;28;20220;-67
2023/05/13 14:47:05;;;;;;;1.77;1.65;;;;;;;;;;5049501;28;20226;-68
2023/05/13 14:49:32;;;;;;;3.72;1.60;;;;;;;;;;5048562;28;20286;-69